Philip — WDF2430 — position and weather

sailwx.info

Track history (hours):
 
Tides and Currents Weather Stations Pressure Air Temp Water Temp Dewpoint Dewpoint Depression Visibility Wind Speed Wind Dir Waves Ship Positions

Philip

Owner: Enterprise Marine Services, LLC, San Antonio, TX. More information available from US FCC via Universal Licensing System and Coast Guard Vessel Documentation Center.

Last reported at 2018-Jun-10 23:44 UTC. Time now 2018-Jun-18 11:32 UTC.
Position N 29°33' W 090°27'.

Length 23 m; draft 2.7 m.

Type: Tug. MMSI: 367003780.

Date/timePositionNaut miles runAvg speedWind from/ knotsBaromVisibWave heightAir tempDewpointWater temp
2018-Jun-10 23:44N 29°33' W 090°27'2 6.9
2018-Jun-10 23:30N 29°34' W 090°29'4 6.8
2018-Jun-10 22:59N 29°34' W 090°33'3 6.4
2018-Jun-10 22:30N 29°35' W 090°37'3 5.2
2018-Jun-10 22:00N 29°36' W 090°39'3 5.7
2018-Jun-10 21:30N 29°37' W 090°42'3 5.0
2018-Jun-10 21:00N 29°34' W 090°43'1 1.1
2018-Jun-10 20:30N 29°34' W 090°43'0 0.0
2018-Jun-10 20:00N 29°34' W 090°43'0 0.3
2018-Jun-10 19:30N 29°34' W 090°43'0 0.3
2018-Jun-10 19:00N 29°34' W 090°43'0 0.3
2018-Jun-10 18:31N 29°34' W 090°43'1 1.5
2018-Jun-10 18:00N 29°34' W 090°43'0 0.8
2018-Jun-10 17:30N 29°35' W 090°43'0 0.0
2018-Jun-10 17:00N 29°35' W 090°43'0 0.0
2018-Jun-10 16:30N 29°35' W 090°43'0 0.0
2018-Jun-10 16:00N 29°35' W 090°43'1 1.7
2018-Jun-10 15:30N 29°34' W 090°43'0 0.7
2018-Jun-10 15:00N 29°34' W 090°43'0 0.2
2018-Jun-10 14:31N 29°34' W 090°43'0 0.0
2018-Jun-10 13:30N 29°34' W 090°43'0 0.2
2018-Jun-10 13:01N 29°34' W 090°43'0 0.4
2018-Jun-10 12:28N 29°34' W 090°43'0 1.1
2018-Jun-10 12:00N 29°34' W 090°43'2 3.1
2018-Jun-10 11:30N 29°34' W 090°45'3 6.0
2018-Jun-10 11:00N 29°32' W 090°48'4 7.1
2018-Jun-10 10:25N 29°32' W 090°52'3 7.3
2018-Jun-10 09:57N 29°34' W 090°56'54 4.2
2018-Jun-09 21:08N 29°51' W 091°55'3 6.1
2018-Jun-09 20:42N 29°50' W 091°58'2 6.4
2018-Jun-09 20:27N 29°50' W 091°59'3 6.2
2018-Jun-09 20:00N 29°49' W 092°02'3 6.6
2018-Jun-09 19:30N 29°48' W 092°06'3 6.3
2018-Jun-09 19:00N 29°47' W 092°09'3 5.1
2018-Jun-09 18:30N 29°47' W 092°12'2 3.3
2018-Jun-09 18:00N 29°48' W 092°14'3 6.0
2018-Jun-09 17:30N 29°49' W 092°17'2 4.1
2018-Jun-09 17:00N 29°50' W 092°19'44 5.6
2018-Jun-09 09:06N 29°56' W 093°10'0 4.1
2018-Jun-09 09:00N 29°56' W 093°10'2 3.0
2018-Jun-09 08:28N 29°58' W 093°11'1 2.6
2018-Jun-09 08:00N 29°59' W 093°12'1 3.0
2018-Jun-09 07:30N 29°60' W 093°13'2 3.3
2018-Jun-09 07:00N 30°01' W 093°14'2 4.3
2018-Jun-09 06:30N 30°03' W 093°16'2 4.5
2018-Jun-09 06:00N 30°05' W 093°17'1 2.5
2018-Jun-09 05:30N 30°05' W 093°18'1 2.1
2018-Jun-09 05:00N 30°06' W 093°19'0 0.2
2018-Jun-09 04:30N 30°06' W 093°19'0 0.0
2018-Jun-09 04:00N 30°06' W 093°19'0 0.0
2018-Jun-09 03:30N 30°06' W 093°19'0 0.0
2018-Jun-09 02:57N 30°06' W 093°19'0 0.0
2018-Jun-09 02:30N 30°06' W 093°19'0 0.0
2018-Jun-09 02:00N 30°06' W 093°19'0 0.0
2018-Jun-09 01:30N 30°06' W 093°19'0 0.0
2018-Jun-09 01:00N 30°06' W 093°19'0 0.0
2018-Jun-09 00:30N 30°06' W 093°19'0 0.0
2018-Jun-09 00:00N 30°06' W 093°19'0 0.0
2018-Jun-08 23:30N 30°06' W 093°19'0 0.0
2018-Jun-08 23:00N 30°06' W 093°19'0 0.0
2018-Jun-08 22:30N 30°06' W 093°19'0 0.0
2018-Jun-08 22:00N 30°06' W 093°19'0 0.0
2018-Jun-08 21:30N 30°06' W 093°19'0 0.0
2018-Jun-08 21:00N 30°06' W 093°19'0 0.0
2018-Jun-08 20:30N 30°06' W 093°19'0 0.0
2018-Jun-08 19:59N 30°06' W 093°19'0 0.0
2018-Jun-08 19:30N 30°06' W 093°19'0 0.0
2018-Jun-08 19:00N 30°06' W 093°19'0 0.0
2018-Jun-08 18:29N 30°06' W 093°19'0 0.0
2018-Jun-08 18:00N 30°06' W 093°19'0 0.0
2018-Jun-08 17:30N 30°06' W 093°19'0 0.0
2018-Jun-08 17:01N 30°06' W 093°19'0 0.0
2018-Jun-08 16:31N 30°06' W 093°19'0 0.0
2018-Jun-08 16:01N 30°06' W 093°19'0 0.0
2018-Jun-08 15:31N 30°06' W 093°19'0 0.0
2018-Jun-08 15:01N 30°06' W 093°19'0 0.0
2018-Jun-08 14:30N 30°06' W 093°19'0 0.0
2018-Jun-08 14:00N 30°06' W 093°19'0 0.0
2018-Jun-08 13:31N 30°06' W 093°19'0 0.0
2018-Jun-08 13:01N 30°06' W 093°19'0 0.0
2018-Jun-08 12:31N 30°06' W 093°19'0 0.0
2018-Jun-08 12:00N 30°06' W 093°19'0 0.1
2018-Jun-08 11:31N 30°06' W 093°19'0 0.1
2018-Jun-08 11:00N 30°06' W 093°19'0 0.0
2018-Jun-08 10:31N 30°06' W 093°19'0 0.0
2018-Jun-08 10:01N 30°06' W 093°19'0 0.0
2018-Jun-08 09:29N 30°06' W 093°19'0 1.0
2018-Jun-08 09:01N 30°06' W 093°19'1 2.6
2018-Jun-08 08:31N 30°05' W 093°20'1 2.8
2018-Jun-08 08:01N 30°04' W 093°22'1 3.0
2018-Jun-08 07:31N 30°04' W 093°23'2 3.6
2018-Jun-08 07:01N 30°04' W 093°25'3 6.0
2018-Jun-08 06:30N 30°04' W 093°29'3 5.5
2018-Jun-08 06:00N 30°04' W 093°32'3 6.0
2018-Jun-08 05:30N 30°04' W 093°35'3 6.1
2018-Jun-08 05:01N 30°04' W 093°39'3 6.0
2018-Jun-08 04:29N 30°03' W 093°43'3 5.8
2018-Jun-08 04:00N 30°01' W 093°45'3 6.2
2018-Jun-08 03:31N 29°59' W 093°48'3 6.5
2018-Jun-08 03:00N 29°58' W 093°51'3 6.4
2018-Jun-08 02:30N 29°55' W 093°53'3 6.2
2018-Jun-08 02:01N 29°53' W 093°55'3 6.1
2018-Jun-08 01:30N 29°50' W 093°57'3 5.5
2018-Jun-08 01:01N 29°49' W 093°60'3 6.7
2018-Jun-08 00:31N 29°46' W 094°02'3 5.7
2018-Jun-08 00:00N 29°45' W 094°05'3 5.3
2018-Jun-07 23:31N 29°43' W 094°07'3 5.3
2018-Jun-07 23:01N 29°41' W 094°10'3 6.1
2018-Jun-07 22:30N 29°40' W 094°13'3 6.0
2018-Jun-07 22:00N 29°39' W 094°16'3 5.9
2018-Jun-07 21:28N 29°38' W 094°19'4 5.9
2018-Jun-07 20:50N 29°36' W 094°23'23 5.7
2018-Jun-07 16:50N 29°24' W 094°46'3 6.6
2018-Jun-07 16:26N 29°22' W 094°48'2 5.3
2018-Jun-07 15:59N 29°24' W 094°49'11 6.4
2018-Jun-07 14:21N 29°33' W 094°55'2 6.9
2018-Jun-07 14:00N 29°35' W 094°56'4 6.9
2018-Jun-07 13:30N 29°39' W 094°58'9 1.9
2018-Jun-07 08:33N 29°46' W 095°05'5 5.4
2018-Jun-07 07:38N 29°42' W 095°01'2 6.3
2018-Jun-07 07:22N 29°41' W 094°59'3 6.5
2018-Jun-07 06:57N 29°39' W 094°58'3 6.6
2018-Jun-07 06:30N 29°36' W 094°57'4 6.8
2018-Jun-07 05:59N 29°33' W 094°55'4 6.6
2018-Jun-07 05:26N 29°30' W 094°52'9 6.5
2018-Jun-07 04:07N 29°23' W 094°48'1 6.4
2018-Jun-07 04:00N 29°22' W 094°47'4 6.8
2018-Jun-07 03:29N 29°25' W 094°44'3 6.2
2018-Jun-07 02:58N 29°27' W 094°41'4 6.0
2018-Jun-07 02:18N 29°29' W 094°37'6 5.9
2018-Jun-07 01:15N 29°31' W 094°31'2 6.1
2018-Jun-07 00:51N 29°32' W 094°29'2 6.0
2018-Jun-07 00:28N 29°34' W 094°27'2 5.0
2018-Jun-07 00:00N 29°36' W 094°25'3 5.4
2018-Jun-06 23:30N 29°36' W 094°22'3 5.8
2018-Jun-06 23:00N 29°38' W 094°19'3 5.9
2018-Jun-06 22:30N 29°39' W 094°16'3 5.9
2018-Jun-06 22:00N 29°40' W 094°13'3 5.0
2018-Jun-06 21:30N 29°41' W 094°10'3 5.8
2018-Jun-06 21:00N 29°43' W 094°07'3 6.0
2018-Jun-06 20:30N 29°45' W 094°05'3 5.5
2018-Jun-06 20:00N 29°47' W 094°02'3 6.1
2018-Jun-06 19:30N 29°49' W 093°60'3 5.8
2018-Jun-06 19:00N 29°50' W 093°57'3 5.9
2018-Jun-06 18:31N 29°53' W 093°55'3 6.0
2018-Jun-06 18:00N 29°55' W 093°53'3 6.1
2018-Jun-06 17:30N 29°58' W 093°51'3 5.9
2018-Jun-06 17:00N 29°59' W 093°54'3 6.0
2018-Jun-06 16:31N 30°01' W 093°57'3 6.4
2018-Jun-06 15:59N 30°01' W 094°01'2 3.2
2018-Jun-06 15:30N 30°02' W 094°02'0 0.0
2018-Jun-06 15:00N 30°02' W 094°02'0 0.0
2018-Jun-06 14:30N 30°02' W 094°02'0 0.0
2018-Jun-06 14:00N 30°02' W 094°02'0 0.0
2018-Jun-06 13:30N 30°02' W 094°02'0 0.0
2018-Jun-06 13:00N 30°02' W 094°02'0 0.0
2018-Jun-06 12:30N 30°02' W 094°02'0 0.0
2018-Jun-06 12:01N 30°02' W 094°02'0 0.0
2018-Jun-06 11:30N 30°02' W 094°02'0 0.0
2018-Jun-06 11:00N 30°02' W 094°02'0 0.0
2018-Jun-06 10:30N 30°02' W 094°02'0 0.0
2018-Jun-06 10:00N 30°02' W 094°02'0 0.0
2018-Jun-06 09:30N 30°02' W 094°02'0 0.0
2018-Jun-06 09:00N 30°02' W 094°02'0 0.0
2018-Jun-06 08:30N 30°02' W 094°02'0 0.0
2018-Jun-06 07:59N 30°02' W 094°02'0 0.0
2018-Jun-06 07:30N 30°02' W 094°02'0 0.0
2018-Jun-06 07:00N 30°02' W 094°02'0 0.0
2018-Jun-06 06:30N 30°02' W 094°02'0 0.0
2018-Jun-06 06:00N 30°02' W 094°02'0 0.0
2018-Jun-06 05:30N 30°02' W 094°02'0 0.0
2018-Jun-06 05:01N 30°02' W 094°02'0 0.0
2018-Jun-06 04:30N 30°02' W 094°02'0 0.0
2018-Jun-06 04:00N 30°02' W 094°02'0 0.0
2018-Jun-06 03:30N 30°02' W 094°02'0 0.0
2018-Jun-06 03:00N 30°02' W 094°02'0 0.0
2018-Jun-06 02:30N 30°02' W 094°02'0 0.0
2018-Jun-06 02:00N 30°02' W 094°02'0 0.0
2018-Jun-06 01:30N 30°02' W 094°02'0 0.0
2018-Jun-06 01:00N 30°02' W 094°02'0 0.0
2018-Jun-06 00:30N 30°02' W 094°02'0 0.0
2018-Jun-05 23:59N 30°02' W 094°02'0 0.0
2018-Jun-05 23:30N 30°02' W 094°02'0 0.0
2018-Jun-05 23:01N 30°02' W 094°02'0 0.0
2018-Jun-05 22:30N 30°02' W 094°02'0 0.0
2018-Jun-05 22:00N 30°02' W 094°02'0 0.0
2018-Jun-05 21:30N 30°02' W 094°02'0 0.0
2018-Jun-05 21:00N 30°02' W 094°02'0 0.0
2018-Jun-05 20:30N 30°02' W 094°02'0 0.0
2018-Jun-05 20:00N 30°02' W 094°02'0 0.0
2018-Jun-05 19:30N 30°02' W 094°02'0 0.0
2018-Jun-05 19:00N 30°02' W 094°02'0 0.0
2018-Jun-05 18:30N 30°02' W 094°02'0 0.0
2018-Jun-05 18:00N 30°02' W 094°02'1 1.2
2018-Jun-05 17:30N 30°02' W 094°03'1 1.2
2018-Jun-05 17:00N 30°02' W 094°02'0 0.0
2018-Jun-05 16:30N 30°02' W 094°02'0 0.0
2018-Jun-05 16:00N 30°02' W 094°02'0 0.0
2018-Jun-05 15:30N 30°02' W 094°02'0 0.0
2018-Jun-05 14:57N 30°02' W 094°02'0 0.0
2018-Jun-05 14:29N 30°02' W 094°02'0 0.0
2018-Jun-05 14:00N 30°02' W 094°02'0 0.0
2018-Jun-05 13:30N 30°02' W 094°02'0 0.0
2018-Jun-05 13:00N 30°02' W 094°02'0 0.0
2018-Jun-05 12:27N 30°02' W 094°02'0 0.0
2018-Jun-05 12:00N 30°02' W 094°02'0 0.0
2018-Jun-05 11:29N 30°02' W 094°02'0 0.0
2018-Jun-05 10:59N 30°02' W 094°02'0 0.0
2018-Jun-05 10:30N 30°02' W 094°02'0 0.0
2018-Jun-05 10:00N 30°02' W 094°02'0 0.0
2018-Jun-05 09:28N 30°02' W 094°02'0 0.0
2018-Jun-05 09:00N 30°02' W 094°02'0 0.0
2018-Jun-05 08:29N 30°02' W 094°02'0 0.0
2018-Jun-05 07:57N 30°02' W 094°02'0 0.0
2018-Jun-05 07:30N 30°02' W 094°02'0 0.0
2018-Jun-05 06:58N 30°02' W 094°02'0 0.0
2018-Jun-05 06:30N 30°02' W 094°02'0 0.0
2018-Jun-05 06:00N 30°02' W 094°02'0 0.0
2018-Jun-05 05:30N 30°02' W 094°02'0 0.1
2018-Jun-05 05:00N 30°02' W 094°02'2 4.0
2018-Jun-05 04:30N 30°01' W 094°01'2 3.2
2018-Jun-05 04:00N 30°00' W 093°59'0 0.3
2018-Jun-05 03:30N 30°01' W 093°59'0 0.2
2018-Jun-05 03:00N 30°00' W 093°59'0 0.0
2018-Jun-05 02:27N 30°00' W 093°59'0 0.0
2018-Jun-05 01:59N 30°00' W 093°59'0 0.0
2018-Jun-05 01:30N 30°00' W 093°59'0 0.0
2018-Jun-05 01:00N 30°00' W 093°59'0 0.0
2018-Jun-05 00:30N 30°00' W 093°59'0 0.0
2018-Jun-05 00:00N 30°00' W 093°59'0 0.1
2018-Jun-04 23:30N 30°00' W 093°59'0 0.0
2018-Jun-04 23:00N 30°00' W 093°59'0 0.0
2018-Jun-04 22:30N 30°00' W 093°59'0 0.0
2018-Jun-04 22:00N 30°00' W 093°59'0 0.0
2018-Jun-04 21:30N 30°00' W 093°59'0 0.0
2018-Jun-04 21:00N 30°00' W 093°59'0 0.0
2018-Jun-04 20:30N 30°00' W 093°59'0 0.0
2018-Jun-04 20:00N 30°00' W 093°59'0 0.0
2018-Jun-04 19:30N 30°00' W 093°59'0 0.0
2018-Jun-04 19:00N 30°00' W 093°59'0 0.0
2018-Jun-04 18:30N 30°00' W 093°59'0 0.0
2018-Jun-04 18:00N 30°00' W 093°59'0 0.0
2018-Jun-04 17:30N 30°00' W 093°59'0 0.0
2018-Jun-04 17:00N 30°00' W 093°59'0 0.0
2018-Jun-04 16:30N 30°00' W 093°59'0 0.2
2018-Jun-04 16:00N 30°00' W 093°59'0 0.0
2018-Jun-04 15:30N 30°00' W 093°59'0 0.0
2018-Jun-04 15:00N 30°00' W 093°59'0 0.0
2018-Jun-04 14:30N 30°00' W 093°59'0 0.0
2018-Jun-04 14:00N 30°00' W 093°59'0 0.0
2018-Jun-04 13:30N 30°00' W 093°59'0 0.0
2018-Jun-04 13:00N 30°00' W 093°59'0 0.0
2018-Jun-04 12:30N 30°00' W 093°59'0 0.0
2018-Jun-04 12:00N 30°00' W 093°59'0 0.0
2018-Jun-04 11:30N 30°00' W 093°59'0 0.0
2018-Jun-04 11:00N 30°00' W 093°59'0 0.0
2018-Jun-04 10:30N 30°00' W 093°59'0 0.0
2018-Jun-04 10:00N 30°00' W 093°59'0 0.0
2018-Jun-04 09:30N 30°00' W 093°59'0 0.0
2018-Jun-04 09:00N 30°00' W 093°59'0 0.0
2018-Jun-04 08:30N 30°00' W 093°59'0 0.0
2018-Jun-04 08:00N 30°00' W 093°59'0 0.0
2018-Jun-04 07:30N 30°00' W 093°59'0 0.0
2018-Jun-04 07:00N 30°00' W 093°59'0 0.0
2018-Jun-04 06:30N 30°00' W 093°59'0 0.0
2018-Jun-04 06:00N 30°00' W 093°59'0 0.0
2018-Jun-04 05:30N 30°00' W 093°59'0 0.0
2018-Jun-04 05:00N 30°00' W 093°59'0 0.0
2018-Jun-04 04:30N 30°00' W 093°59'0 0.0
2018-Jun-04 04:00N 30°00' W 093°59'0 0.0
2018-Jun-04 03:30N 30°00' W 093°59'0 0.0
2018-Jun-04 03:00N 30°00' W 093°59'0 0.0
2018-Jun-04 02:30N 30°00' W 093°59'0 0.0
2018-Jun-04 02:00N 30°00' W 093°59'0 0.0
2018-Jun-04 01:29N 30°00' W 093°59'0 0.0
2018-Jun-04 01:00N 30°00' W 093°59'0 0.0
2018-Jun-04 00:30N 30°00' W 093°59'0 0.0
2018-Jun-04 00:00N 30°00' W 093°59'0 0.0
2018-Jun-03 23:30N 30°00' W 093°59'0 0.1
2018-Jun-03 23:00N 30°00' W 093°59'0 0.4
2018-Jun-03 22:30N 30°01' W 093°59'0 0.3
2018-Jun-03 22:00N 30°01' W 093°59'0 0.0
2018-Jun-03 21:30N 30°01' W 093°59'0 0.0
2018-Jun-03 21:00N 30°01' W 093°59'1 2.1
2018-Jun-03 20:30N 30°01' W 093°58'3 5.2
2018-Jun-03 20:00N 29°59' W 093°55'3 6.0
2018-Jun-03 19:30N 29°59' W 093°52'3 5.3
2018-Jun-03 19:00N 29°56' W 093°52'3 6.7
2018-Jun-03 18:30N 29°54' W 093°55'3 6.8
2018-Jun-03 18:00N 29°51' W 093°57'3 5.2
2018-Jun-03 17:30N 29°49' W 093°59'2 4.7
2018-Jun-03 17:00N 29°47' W 094°01'2 4.6
2018-Jun-03 16:30N 29°46' W 094°03'2 4.5
2018-Jun-03 16:00N 29°44' W 094°05'2 4.4
2018-Jun-03 15:28N 29°43' W 094°07'2 4.5
2018-Jun-03 15:00N 29°42' W 094°09'2 4.2
2018-Jun-03 14:30N 29°41' W 094°11'2 4.5
2018-Jun-03 14:00N 29°40' W 094°14'2 4.5
2018-Jun-03 13:30N 29°39' W 094°16'2 4.1
2018-Jun-03 13:00N 29°38' W 094°18'2 4.4
2018-Jun-03 12:27N 29°37' W 094°21'3 3.6
2018-Jun-03 11:45N 29°36' W 094°23'1 4.4
2018-Jun-03 11:28N 29°36' W 094°24'8 3.9
2018-Jun-03 09:28N 29°31' W 094°31'2 3.6
2018-Jun-03 08:57N 29°30' W 094°33'2 4.3
2018-Jun-03 08:28N 29°29' W 094°36'3 4.1
2018-Jun-03 07:50N 29°28' W 094°38'2 4.3
2018-Jun-03 07:29N 29°28' W 094°40'2 3.9
2018-Jun-03 06:56N 29°26' W 094°42'2 4.0
2018-Jun-03 06:30N 29°25' W 094°43'2 4.2
2018-Jun-03 06:00N 29°24' W 094°45'2 4.0
2018-Jun-03 05:30N 29°22' W 094°47'1 2.4
2018-Jun-03 04:57N 29°23' W 094°48'4 6.8
2018-Jun-03 04:26N 29°26' W 094°50'8 6.8
2018-Jun-03 03:15N 29°33' W 094°54'2 5.9
2018-Jun-03 02:57N 29°34' W 094°56'3 6.0
2018-Jun-03 02:27N 29°37' W 094°57'3 5.8
2018-Jun-03 01:58N 29°39' W 094°58'3 5.7
2018-Jun-03 01:23N 29°42' W 095°01'1 0.0
2018-Jun-01 07:01N 29°43' W 095°01'0 6.4
2018-Jun-01 07:00N 29°43' W 095°01'3 5.9
2018-Jun-01 06:30N 29°41' W 094°59'3 6.4
2018-Jun-01 05:59N 29°38' W 094°58'3 6.5
2018-Jun-01 05:30N 29°35' W 094°56'3 6.7
2018-Jun-01 05:00N 29°32' W 094°54'12 5.9
2018-Jun-01 03:03N 29°22' W 094°48'2 6.4
2018-Jun-01 02:44N 29°22' W 094°51'2 3.9
2018-Jun-01 02:21N 29°23' W 094°52'0 0.0
2018-Jun-01 01:28N 29°23' W 094°52'0 0.1
2018-Jun-01 00:58N 29°23' W 094°52'  
Track history (hours):
 
Tides and Currents Weather Stations Pressure Air Temp Water Temp Dewpoint Dewpoint Depression Visibility Wind Speed Wind Dir Waves Ship Positions

Philip

Owner: Enterprise Marine Services, LLC, San Antonio, TX. More information available from US FCC via Universal Licensing System and Coast Guard Vessel Documentation Center.

Last reported at 2018-Jun-10 23:44 UTC. Time now 2018-Jun-18 11:32 UTC.
Position N 29°33' W 090°27'.

Length 23 m; draft 2.7 m.

Type: Tug. MMSI: 367003780.

Date/timePositionNaut miles runAvg speedWind from/ knotsBaromVisibWave heightAir tempDewpointWater temp
2018-Jun-10 23:44N 29°33' W 090°27'2 6.9
2018-Jun-10 23:30N 29°34' W 090°29'4 6.8
2018-Jun-10 22:59N 29°34' W 090°33'3 6.4
2018-Jun-10 22:30N 29°35' W 090°37'3 5.2
2018-Jun-10 22:00N 29°36' W 090°39'3 5.7
2018-Jun-10 21:30N 29°37' W 090°42'3 5.0
2018-Jun-10 21:00N 29°34' W 090°43'1 1.1
2018-Jun-10 20:30N 29°34' W 090°43'0 0.0
2018-Jun-10 20:00N 29°34' W 090°43'0 0.3
2018-Jun-10 19:30N 29°34' W 090°43'0 0.3
2018-Jun-10 19:00N 29°34' W 090°43'0 0.3
2018-Jun-10 18:31N 29°34' W 090°43'1 1.5
2018-Jun-10 18:00N 29°34' W 090°43'0 0.8
2018-Jun-10 17:30N 29°35' W 090°43'0 0.0
2018-Jun-10 17:00N 29°35' W 090°43'0 0.0
2018-Jun-10 16:30N 29°35' W 090°43'0 0.0
2018-Jun-10 16:00N 29°35' W 090°43'1 1.7
2018-Jun-10 15:30N 29°34' W 090°43'0 0.7
2018-Jun-10 15:00N 29°34' W 090°43'0 0.2
2018-Jun-10 14:31N 29°34' W 090°43'0 0.0
2018-Jun-10 13:30N 29°34' W 090°43'0 0.2
2018-Jun-10 13:01N 29°34' W 090°43'0 0.4
2018-Jun-10 12:28N 29°34' W 090°43'0 1.1
2018-Jun-10 12:00N 29°34' W 090°43'2 3.1
2018-Jun-10 11:30N 29°34' W 090°45'3 6.0
2018-Jun-10 11:00N 29°32' W 090°48'4 7.1
2018-Jun-10 10:25N 29°32' W 090°52'3 7.3
2018-Jun-10 09:57N 29°34' W 090°56'54 4.2
2018-Jun-09 21:08N 29°51' W 091°55'3 6.1
2018-Jun-09 20:42N 29°50' W 091°58'2 6.4
2018-Jun-09 20:27N 29°50' W 091°59'3 6.2
2018-Jun-09 20:00N 29°49' W 092°02'3 6.6
2018-Jun-09 19:30N 29°48' W 092°06'3 6.3
2018-Jun-09 19:00N 29°47' W 092°09'3 5.1
2018-Jun-09 18:30N 29°47' W 092°12'2 3.3
2018-Jun-09 18:00N 29°48' W 092°14'3 6.0
2018-Jun-09 17:30N 29°49' W 092°17'2 4.1
2018-Jun-09 17:00N 29°50' W 092°19'44 5.6
2018-Jun-09 09:06N 29°56' W 093°10'0 4.1
2018-Jun-09 09:00N 29°56' W 093°10'2 3.0
2018-Jun-09 08:28N 29°58' W 093°11'1 2.6
2018-Jun-09 08:00N 29°59' W 093°12'1 3.0
2018-Jun-09 07:30N 29°60' W 093°13'2 3.3
2018-Jun-09 07:00N 30°01' W 093°14'2 4.3
2018-Jun-09 06:30N 30°03' W 093°16'2 4.5
2018-Jun-09 06:00N 30°05' W 093°17'1 2.5
2018-Jun-09 05:30N 30°05' W 093°18'1 2.1
2018-Jun-09 05:00N 30°06' W 093°19'0 0.2
2018-Jun-09 04:30N 30°06' W 093°19'0 0.0
2018-Jun-09 04:00N 30°06' W 093°19'0 0.0
2018-Jun-09 03:30N 30°06' W 093°19'0 0.0
2018-Jun-09 02:57N 30°06' W 093°19'0 0.0
2018-Jun-09 02:30N 30°06' W 093°19'0 0.0
2018-Jun-09 02:00N 30°06' W 093°19'0 0.0
2018-Jun-09 01:30N 30°06' W 093°19'0 0.0
2018-Jun-09 01:00N 30°06' W 093°19'0 0.0
2018-Jun-09 00:30N 30°06' W 093°19'0 0.0
2018-Jun-09 00:00N 30°06' W 093°19'0 0.0
2018-Jun-08 23:30N 30°06' W 093°19'0 0.0
2018-Jun-08 23:00N 30°06' W 093°19'0 0.0
2018-Jun-08 22:30N 30°06' W 093°19'0 0.0
2018-Jun-08 22:00N 30°06' W 093°19'0 0.0
2018-Jun-08 21:30N 30°06' W 093°19'0 0.0
2018-Jun-08 21:00N 30°06' W 093°19'0 0.0
2018-Jun-08 20:30N 30°06' W 093°19'0 0.0
2018-Jun-08 19:59N 30°06' W 093°19'0 0.0
2018-Jun-08 19:30N 30°06' W 093°19'0 0.0
2018-Jun-08 19:00N 30°06' W 093°19'0 0.0
2018-Jun-08 18:29N 30°06' W 093°19'0 0.0
2018-Jun-08 18:00N 30°06' W 093°19'0 0.0
2018-Jun-08 17:30N 30°06' W 093°19'0 0.0
2018-Jun-08 17:01N 30°06' W 093°19'0 0.0
2018-Jun-08 16:31N 30°06' W 093°19'0 0.0
2018-Jun-08 16:01N 30°06' W 093°19'0 0.0
2018-Jun-08 15:31N 30°06' W 093°19'0 0.0
2018-Jun-08 15:01N 30°06' W 093°19'0 0.0
2018-Jun-08 14:30N 30°06' W 093°19'0 0.0
2018-Jun-08 14:00N 30°06' W 093°19'0 0.0
2018-Jun-08 13:31N 30°06' W 093°19'0 0.0
2018-Jun-08 13:01N 30°06' W 093°19'0 0.0
2018-Jun-08 12:31N 30°06' W 093°19'0 0.0
2018-Jun-08 12:00N 30°06' W 093°19'0 0.1
2018-Jun-08 11:31N 30°06' W 093°19'0 0.1
2018-Jun-08 11:00N 30°06' W 093°19'0 0.0
2018-Jun-08 10:31N 30°06' W 093°19'0 0.0
2018-Jun-08 10:01N 30°06' W 093°19'0 0.0
2018-Jun-08 09:29N 30°06' W 093°19'0 1.0
2018-Jun-08 09:01N 30°06' W 093°19'1 2.6
2018-Jun-08 08:31N 30°05' W 093°20'1 2.8
2018-Jun-08 08:01N 30°04' W 093°22'1 3.0
2018-Jun-08 07:31N 30°04' W 093°23'2 3.6
2018-Jun-08 07:01N 30°04' W 093°25'3 6.0
2018-Jun-08 06:30N 30°04' W 093°29'3 5.5
2018-Jun-08 06:00N 30°04' W 093°32'3 6.0
2018-Jun-08 05:30N 30°04' W 093°35'3 6.1
2018-Jun-08 05:01N 30°04' W 093°39'3 6.0
2018-Jun-08 04:29N 30°03' W 093°43'3 5.8
2018-Jun-08 04:00N 30°01' W 093°45'3 6.2
2018-Jun-08 03:31N 29°59' W 093°48'3 6.5
2018-Jun-08 03:00N 29°58' W 093°51'3 6.4
2018-Jun-08 02:30N 29°55' W 093°53'3 6.2
2018-Jun-08 02:01N 29°53' W 093°55'3 6.1
2018-Jun-08 01:30N 29°50' W 093°57'3 5.5
2018-Jun-08 01:01N 29°49' W 093°60'3 6.7
2018-Jun-08 00:31N 29°46' W 094°02'3 5.7
2018-Jun-08 00:00N 29°45' W 094°05'3 5.3
2018-Jun-07 23:31N 29°43' W 094°07'3 5.3
2018-Jun-07 23:01N 29°41' W 094°10'3 6.1
2018-Jun-07 22:30N 29°40' W 094°13'3 6.0
2018-Jun-07 22:00N 29°39' W 094°16'3 5.9
2018-Jun-07 21:28N 29°38' W 094°19'4 5.9
2018-Jun-07 20:50N 29°36' W 094°23'23 5.7
2018-Jun-07 16:50N 29°24' W 094°46'3 6.6
2018-Jun-07 16:26N 29°22' W 094°48'2 5.3
2018-Jun-07 15:59N 29°24' W 094°49'11 6.4
2018-Jun-07 14:21N 29°33' W 094°55'2 6.9
2018-Jun-07 14:00N 29°35' W 094°56'4 6.9
2018-Jun-07 13:30N 29°39' W 094°58'9 1.9
2018-Jun-07 08:33N 29°46' W 095°05'5 5.4
2018-Jun-07 07:38N 29°42' W 095°01'2 6.3
2018-Jun-07 07:22N 29°41' W 094°59'3 6.5
2018-Jun-07 06:57N 29°39' W 094°58'3 6.6
2018-Jun-07 06:30N 29°36' W 094°57'4 6.8
2018-Jun-07 05:59N 29°33' W 094°55'4 6.6
2018-Jun-07 05:26N 29°30' W 094°52'9 6.5
2018-Jun-07 04:07N 29°23' W 094°48'1 6.4
2018-Jun-07 04:00N 29°22' W 094°47'4 6.8
2018-Jun-07 03:29N 29°25' W 094°44'3 6.2
2018-Jun-07 02:58N 29°27' W 094°41'4 6.0
2018-Jun-07 02:18N 29°29' W 094°37'6 5.9
2018-Jun-07 01:15N 29°31' W 094°31'2 6.1
2018-Jun-07 00:51N 29°32' W 094°29'2 6.0
2018-Jun-07 00:28N 29°34' W 094°27'2 5.0
2018-Jun-07 00:00N 29°36' W 094°25'3 5.4
2018-Jun-06 23:30N 29°36' W 094°22'3 5.8
2018-Jun-06 23:00N 29°38' W 094°19'3 5.9
2018-Jun-06 22:30N 29°39' W 094°16'3 5.9
2018-Jun-06 22:00N 29°40' W 094°13'3 5.0
2018-Jun-06 21:30N 29°41' W 094°10'3 5.8
2018-Jun-06 21:00N 29°43' W 094°07'3 6.0
2018-Jun-06 20:30N 29°45' W 094°05'3 5.5
2018-Jun-06 20:00N 29°47' W 094°02'3 6.1
2018-Jun-06 19:30N 29°49' W 093°60'3 5.8
2018-Jun-06 19:00N 29°50' W 093°57'3 5.9
2018-Jun-06 18:31N 29°53' W 093°55'3 6.0
2018-Jun-06 18:00N 29°55' W 093°53'3 6.1
2018-Jun-06 17:30N 29°58' W 093°51'3 5.9
2018-Jun-06 17:00N 29°59' W 093°54'3 6.0
2018-Jun-06 16:31N 30°01' W 093°57'3 6.4
2018-Jun-06 15:59N 30°01' W 094°01'2 3.2
2018-Jun-06 15:30N 30°02' W 094°02'0 0.0
2018-Jun-06 15:00N 30°02' W 094°02'0 0.0
2018-Jun-06 14:30N 30°02' W 094°02'0 0.0
2018-Jun-06 14:00N 30°02' W 094°02'0 0.0
2018-Jun-06 13:30N 30°02' W 094°02'0 0.0
2018-Jun-06 13:00N 30°02' W 094°02'0 0.0
2018-Jun-06 12:30N 30°02' W 094°02'0 0.0
2018-Jun-06 12:01N 30°02' W 094°02'0 0.0
2018-Jun-06 11:30N 30°02' W 094°02'0 0.0
2018-Jun-06 11:00N 30°02' W 094°02'0 0.0
2018-Jun-06 10:30N 30°02' W 094°02'0 0.0
2018-Jun-06 10:00N 30°02' W 094°02'0 0.0
2018-Jun-06 09:30N 30°02' W 094°02'0 0.0
2018-Jun-06 09:00N 30°02' W 094°02'0 0.0
2018-Jun-06 08:30N 30°02' W 094°02'0 0.0
2018-Jun-06 07:59N 30°02' W 094°02'0 0.0
2018-Jun-06 07:30N 30°02' W 094°02'0 0.0
2018-Jun-06 07:00N 30°02' W 094°02'0 0.0
2018-Jun-06 06:30N 30°02' W 094°02'0 0.0
2018-Jun-06 06:00N 30°02' W 094°02'0 0.0
2018-Jun-06 05:30N 30°02' W 094°02'0 0.0
2018-Jun-06 05:01N 30°02' W 094°02'0 0.0
2018-Jun-06 04:30N 30°02' W 094°02'0 0.0
2018-Jun-06 04:00N 30°02' W 094°02'0 0.0
2018-Jun-06 03:30N 30°02' W 094°02'0 0.0
2018-Jun-06 03:00N 30°02' W 094°02'0 0.0
2018-Jun-06 02:30N 30°02' W 094°02'0 0.0
2018-Jun-06 02:00N 30°02' W 094°02'0 0.0
2018-Jun-06 01:30N 30°02' W 094°02'0 0.0
2018-Jun-06 01:00N 30°02' W 094°02'0 0.0
2018-Jun-06 00:30N 30°02' W 094°02'0 0.0
2018-Jun-05 23:59N 30°02' W 094°02'0 0.0
2018-Jun-05 23:30N 30°02' W 094°02'0 0.0
2018-Jun-05 23:01N 30°02' W 094°02'0 0.0
2018-Jun-05 22:30N 30°02' W 094°02'0 0.0
2018-Jun-05 22:00N 30°02' W 094°02'0 0.0
2018-Jun-05 21:30N 30°02' W 094°02'0 0.0
2018-Jun-05 21:00N 30°02' W 094°02'0 0.0
2018-Jun-05 20:30N 30°02' W 094°02'0 0.0
2018-Jun-05 20:00N 30°02' W 094°02'0 0.0
2018-Jun-05 19:30N 30°02' W 094°02'0 0.0
2018-Jun-05 19:00N 30°02' W 094°02'0 0.0
2018-Jun-05 18:30N 30°02' W 094°02'0 0.0
2018-Jun-05 18:00N 30°02' W 094°02'1 1.2
2018-Jun-05 17:30N 30°02' W 094°03'1 1.2
2018-Jun-05 17:00N 30°02' W 094°02'0 0.0
2018-Jun-05 16:30N 30°02' W 094°02'0 0.0
2018-Jun-05 16:00N 30°02' W 094°02'0 0.0
2018-Jun-05 15:30N 30°02' W 094°02'0 0.0
2018-Jun-05 14:57N 30°02' W 094°02'0 0.0
2018-Jun-05 14:29N 30°02' W 094°02'0 0.0
2018-Jun-05 14:00N 30°02' W 094°02'0 0.0
2018-Jun-05 13:30N 30°02' W 094°02'0 0.0
2018-Jun-05 13:00N 30°02' W 094°02'0 0.0
2018-Jun-05 12:27N 30°02' W 094°02'0 0.0
2018-Jun-05 12:00N 30°02' W 094°02'0 0.0
2018-Jun-05 11:29N 30°02' W 094°02'0 0.0
2018-Jun-05 10:59N 30°02' W 094°02'0 0.0
2018-Jun-05 10:30N 30°02' W 094°02'0 0.0
2018-Jun-05 10:00N 30°02' W 094°02'0 0.0
2018-Jun-05 09:28N 30°02' W 094°02'0 0.0
2018-Jun-05 09:00N 30°02' W 094°02'0 0.0
2018-Jun-05 08:29N 30°02' W 094°02'0 0.0
2018-Jun-05 07:57N 30°02' W 094°02'0 0.0
2018-Jun-05 07:30N 30°02' W 094°02'0 0.0
2018-Jun-05 06:58N 30°02' W 094°02'0 0.0
2018-Jun-05 06:30N 30°02' W 094°02'0 0.0
2018-Jun-05 06:00N 30°02' W 094°02'0 0.0
2018-Jun-05 05:30N 30°02' W 094°02'0 0.1
2018-Jun-05 05:00N 30°02' W 094°02'2 4.0
2018-Jun-05 04:30N 30°01' W 094°01'2 3.2
2018-Jun-05 04:00N 30°00' W 093°59'0 0.3
2018-Jun-05 03:30N 30°01' W 093°59'0 0.2
2018-Jun-05 03:00N 30°00' W 093°59'0 0.0
2018-Jun-05 02:27N 30°00' W 093°59'0 0.0
2018-Jun-05 01:59N 30°00' W 093°59'0 0.0
2018-Jun-05 01:30N 30°00' W 093°59'0 0.0
2018-Jun-05 01:00N 30°00' W 093°59'0 0.0
2018-Jun-05 00:30N 30°00' W 093°59'0 0.0
2018-Jun-05 00:00N 30°00' W 093°59'0 0.1
2018-Jun-04 23:30N 30°00' W 093°59'0 0.0
2018-Jun-04 23:00N 30°00' W 093°59'0 0.0
2018-Jun-04 22:30N 30°00' W 093°59'0 0.0
2018-Jun-04 22:00N 30°00' W 093°59'0 0.0
2018-Jun-04 21:30N 30°00' W 093°59'0 0.0
2018-Jun-04 21:00N 30°00' W 093°59'0 0.0
2018-Jun-04 20:30N 30°00' W 093°59'0 0.0
2018-Jun-04 20:00N 30°00' W 093°59'0 0.0
2018-Jun-04 19:30N 30°00' W 093°59'0 0.0
2018-Jun-04 19:00N 30°00' W 093°59'0 0.0
2018-Jun-04 18:30N 30°00' W 093°59'0 0.0
2018-Jun-04 18:00N 30°00' W 093°59'0 0.0
2018-Jun-04 17:30N 30°00' W 093°59'0 0.0
2018-Jun-04 17:00N 30°00' W 093°59'0 0.0
2018-Jun-04 16:30N 30°00' W 093°59'0 0.2
2018-Jun-04 16:00N 30°00' W 093°59'0 0.0
2018-Jun-04 15:30N 30°00' W 093°59'0 0.0
2018-Jun-04 15:00N 30°00' W 093°59'0 0.0
2018-Jun-04 14:30N 30°00' W 093°59'0 0.0
2018-Jun-04 14:00N 30°00' W 093°59'0 0.0
2018-Jun-04 13:30N 30°00' W 093°59'0 0.0
2018-Jun-04 13:00N 30°00' W 093°59'0 0.0
2018-Jun-04 12:30N 30°00' W 093°59'0 0.0
2018-Jun-04 12:00N 30°00' W 093°59'0 0.0
2018-Jun-04 11:30N 30°00' W 093°59'0 0.0
2018-Jun-04 11:00N 30°00' W 093°59'0 0.0
2018-Jun-04 10:30N 30°00' W 093°59'0 0.0
2018-Jun-04 10:00N 30°00' W 093°59'0 0.0
2018-Jun-04 09:30N 30°00' W 093°59'0 0.0
2018-Jun-04 09:00N 30°00' W 093°59'0 0.0
2018-Jun-04 08:30N 30°00' W 093°59'0 0.0
2018-Jun-04 08:00N 30°00' W 093°59'0 0.0
2018-Jun-04 07:30N 30°00' W 093°59'0 0.0
2018-Jun-04 07:00N 30°00' W 093°59'0 0.0
2018-Jun-04 06:30N 30°00' W 093°59'0 0.0
2018-Jun-04 06:00N 30°00' W 093°59'0 0.0
2018-Jun-04 05:30N 30°00' W 093°59'0 0.0
2018-Jun-04 05:00N 30°00' W 093°59'0 0.0
2018-Jun-04 04:30N 30°00' W 093°59'0 0.0
2018-Jun-04 04:00N 30°00' W 093°59'0 0.0
2018-Jun-04 03:30N 30°00' W 093°59'0 0.0
2018-Jun-04 03:00N 30°00' W 093°59'0 0.0
2018-Jun-04 02:30N 30°00' W 093°59'0 0.0
2018-Jun-04 02:00N 30°00' W 093°59'0 0.0
2018-Jun-04 01:29N 30°00' W 093°59'0 0.0
2018-Jun-04 01:00N 30°00' W 093°59'0 0.0
2018-Jun-04 00:30N 30°00' W 093°59'0 0.0
2018-Jun-04 00:00N 30°00' W 093°59'0 0.0
2018-Jun-03 23:30N 30°00' W 093°59'0 0.1
2018-Jun-03 23:00N 30°00' W 093°59'0 0.4
2018-Jun-03 22:30N 30°01' W 093°59'0 0.3
2018-Jun-03 22:00N 30°01' W 093°59'0 0.0
2018-Jun-03 21:30N 30°01' W 093°59'0 0.0
2018-Jun-03 21:00N 30°01' W 093°59'1 2.1
2018-Jun-03 20:30N 30°01' W 093°58'3 5.2
2018-Jun-03 20:00N 29°59' W 093°55'3 6.0
2018-Jun-03 19:30N 29°59' W 093°52'3 5.3
2018-Jun-03 19:00N 29°56' W 093°52'3 6.7
2018-Jun-03 18:30N 29°54' W 093°55'3 6.8
2018-Jun-03 18:00N 29°51' W 093°57'3 5.2
2018-Jun-03 17:30N 29°49' W 093°59'2 4.7
2018-Jun-03 17:00N 29°47' W 094°01'2 4.6
2018-Jun-03 16:30N 29°46' W 094°03'2 4.5
2018-Jun-03 16:00N 29°44' W 094°05'2 4.4
2018-Jun-03 15:28N 29°43' W 094°07'2 4.5
2018-Jun-03 15:00N 29°42' W 094°09'2 4.2
2018-Jun-03 14:30N 29°41' W 094°11'2 4.5
2018-Jun-03 14:00N 29°40' W 094°14'2 4.5
2018-Jun-03 13:30N 29°39' W 094°16'2 4.1
2018-Jun-03 13:00N 29°38' W 094°18'2 4.4
2018-Jun-03 12:27N 29°37' W 094°21'3 3.6
2018-Jun-03 11:45N 29°36' W 094°23'1 4.4
2018-Jun-03 11:28N 29°36' W 094°24'8 3.9
2018-Jun-03 09:28N 29°31' W 094°31'2 3.6
2018-Jun-03 08:57N 29°30' W 094°33'2 4.3
2018-Jun-03 08:28N 29°29' W 094°36'3 4.1
2018-Jun-03 07:50N 29°28' W 094°38'2 4.3
2018-Jun-03 07:29N 29°28' W 094°40'2 3.9
2018-Jun-03 06:56N 29°26' W 094°42'2 4.0
2018-Jun-03 06:30N 29°25' W 094°43'2 4.2
2018-Jun-03 06:00N 29°24' W 094°45'2 4.0
2018-Jun-03 05:30N 29°22' W 094°47'1 2.4
2018-Jun-03 04:57N 29°23' W 094°48'4 6.8
2018-Jun-03 04:26N 29°26' W 094°50'8 6.8
2018-Jun-03 03:15N 29°33' W 094°54'2 5.9
2018-Jun-03 02:57N 29°34' W 094°56'3 6.0
2018-Jun-03 02:27N 29°37' W 094°57'3 5.8
2018-Jun-03 01:58N 29°39' W 094°58'3 5.7
2018-Jun-03 01:23N 29°42' W 095°01'1 0.0
2018-Jun-01 07:01N 29°43' W 095°01'0 6.4
2018-Jun-01 07:00N 29°43' W 095°01'3 5.9
2018-Jun-01 06:30N 29°41' W 094°59'3 6.4
2018-Jun-01 05:59N 29°38' W 094°58'3 6.5
2018-Jun-01 05:30N 29°35' W 094°56'3 6.7
2018-Jun-01 05:00N 29°32' W 094°54'12 5.9
2018-Jun-01 03:03N 29°22' W 094°48'2 6.4
2018-Jun-01 02:44N 29°22' W 094°51'2 3.9
2018-Jun-01 02:21N 29°23' W 094°52'0 0.0
2018-Jun-01 01:28N 29°23' W 094°52'0 0.1
2018-Jun-01 00:58N 29°23' W 094°52'  

Dump ship's entire track history